sensor_id;sensor_type;location;lat;lon;timestamp;pressure;altitude;pressure_sealevel;temperature;humidity
34742;BME280;20968;42.696;23.360;2023-02-28T00:00:35;95706.69;;;9.90;78.55
34742;BME280;20968;42.696;23.360;2023-02-28T00:03:01;95703.16;;;9.99;77.95
34742;BME280;20968;42.696;23.360;2023-02-28T00:05:28;95712.78;;;10.03;77.46
34742;BME280;20968;42.696;23.360;2023-02-28T00:07:53;95714.63;;;10.06;77.48
34742;BME280;20968;42.696;23.360;2023-02-28T00:10:25;95729.72;;;10.19;76.72
34742;BME280;20968;42.696;23.360;2023-02-28T00:12:53;95717.22;;;10.09;76.03
34742;BME280;20968;42.696;23.360;2023-02-28T00:15:19;95707.75;;;10.02;75.79
34742;BME280;20968;42.696;23.360;2023-02-28T00:17:45;95715.38;;;10.07;76.11
34742;BME280;20968;42.696;23.360;2023-02-28T00:20:12;95728.09;;;10.04;75.64
34742;BME280;20968;42.696;23.360;2023-02-28T00:22:39;95729.78;;;10.02;76.01
34742;BME280;20968;42.696;23.360;2023-02-28T00:25:06;95727.13;;;10.07;75.54
34742;BME280;20968;42.696;23.360;2023-02-28T00:27:33;95733.56;;;10.13;75.85
34742;BME280;20968;42.696;23.360;2023-02-28T00:30:00;95745.81;;;10.03;76.03
34742;BME280;20968;42.696;23.360;2023-02-28T00:32:26;95734.97;;;10.08;75.12
34742;BME280;20968;42.696;23.360;2023-02-28T00:34:51;95725.91;;;10.17;74.56
34742;BME280;20968;42.696;23.360;2023-02-28T00:37:17;95735.38;;;10.16;74.82
34742;BME280;20968;42.696;23.360;2023-02-28T00:39:42;95730.97;;;10.09;74.42
34742;BME280;20968;42.696;23.360;2023-02-28T00:42:08;95730.38;;;10.06;74.79
34742;BME280;20968;42.696;23.360;2023-02-28T00:44:33;95741.06;;;10.12;74.89
34742;BME280;20968;42.696;23.360;2023-02-28T00:46:59;95728.84;;;10.05;74.55
34742;BME280;20968;42.696;23.360;2023-02-28T00:49:26;95709.91;;;9.71;75.17
34742;BME280;20968;42.696;23.360;2023-02-28T00:51:53;95712.34;;;9.87;75.76
34742;BME280;20968;42.696;23.360;2023-02-28T00:54:19;95716.44;;;9.91;74.56
34742;BME280;20968;42.696;23.360;2023-02-28T00:56:44;95699.03;;;9.94;74.22
34742;BME280;20968;42.696;23.360;2023-02-28T00:59:12;95711.75;;;10.01;74.99
34742;BME280;20968;42.696;23.360;2023-02-28T01:01:38;95710.34;;;10.05;73.95
34742;BME280;20968;42.696;23.360;2023-02-28T01:04:03;95718.88;;;10.07;73.91
34742;BME280;20968;42.696;23.360;2023-02-28T01:06:30;95722.44;;;9.99;74.30
34742;BME280;20968;42.696;23.360;2023-02-28T01:08:55;95723.97;;;10.00;74.22
34742;BME280;20968;42.696;23.360;2023-02-28T01:11:21;95721.81;;;10.04;74.35
34742;BME280;20968;42.696;23.360;2023-02-28T01:13:47;95721.31;;;10.14;73.77
34742;BME280;20968;42.696;23.360;2023-02-28T01:16:13;95697.19;;;10.00;73.42
34742;BME280;20968;42.696;23.360;2023-02-28T01:18:39;95700.72;;;9.92;74.43
34742;BME280;20968;42.696;23.360;2023-02-28T01:21:12;95714.78;;;9.94;74.10
34742;BME280;20968;42.696;23.360;2023-02-28T01:23:39;95717.06;;;9.95;73.61
34742;BME280;20968;42.696;23.360;2023-02-28T01:26:18;95717.38;;;9.97;73.98
34742;BME280;20968;42.696;23.360;2023-02-28T01:28:44;95714.19;;;9.99;73.49
34742;BME280;20968;42.696;23.360;2023-02-28T01:31:14;95712.19;;;9.99;73.43
34742;BME280;20968;42.696;23.360;2023-02-28T01:33:40;95713.69;;;10.00;73.61
34742;BME280;20968;42.696;23.360;2023-02-28T01:36:23;95703.47;;;9.92;73.46
34742;BME280;20968;42.696;23.360;2023-02-28T01:38:49;95711.41;;;9.90;72.71
34742;BME280;20968;42.696;23.360;2023-02-28T01:41:18;95710.50;;;9.84;72.69
34742;BME280;20968;42.696;23.360;2023-02-28T01:46:13;95703.94;;;9.63;72.83
34742;BME280;20968;42.696;23.360;2023-02-28T01:51:13;95726.22;;;9.47;74.10
34742;BME280;20968;42.696;23.360;2023-02-28T01:53:50;95722.41;;;9.45;73.77
34742;BME280;20968;42.696;23.360;2023-02-28T01:56:21;95722.41;;;9.36;74.16
34742;BME280;20968;42.696;23.360;2023-02-28T01:58:53;95724.25;;;9.39;74.48
34742;BME280;20968;42.696;23.360;2023-02-28T02:01:21;95724.84;;;9.34;74.61
34742;BME280;20968;42.696;23.360;2023-02-28T02:03:53;95717.66;;;9.27;74.79
34742;BME280;20968;42.696;23.360;2023-02-28T02:06:30;95715.09;;;9.33;75.77
34742;BME280;20968;42.696;23.360;2023-02-28T02:08:58;95716.00;;;9.30;74.25
34742;BME280;20968;42.696;23.360;2023-02-28T02:11:24;95714.91;;;9.19;75.32
34742;BME280;20968;42.696;23.360;2023-02-28T02:16:59;95720.22;;;9.04;75.27
34742;BME280;20968;42.696;23.360;2023-02-28T02:25:28;95702.53;;;9.14;76.16
34742;BME280;20968;42.696;23.360;2023-02-28T02:28:17;95710.03;;;9.14;76.31
34742;BME280;20968;42.696;23.360;2023-02-28T02:34:00;95711.09;;;9.16;75.94
34742;BME280;20968;42.696;23.360;2023-02-28T02:36:35;95721.78;;;9.23;76.81
34742;BME280;20968;42.696;23.360;2023-02-28T02:39:12;95719.06;;;9.32;75.30
34742;BME280;20968;42.696;23.360;2023-02-28T02:41:47;95723.94;;;9.37;75.98
34742;BME280;20968;42.696;23.360;2023-02-28T02:44:39;95723.16;;;9.45;74.70
34742;BME280;20968;42.696;23.360;2023-02-28T02:47:15;95732.78;;;9.50;74.88
34742;BME280;20968;42.696;23.360;2023-02-28T02:49:51;95726.84;;;9.51;75.39
34742;BME280;20968;42.696;23.360;2023-02-28T02:52:21;95730.66;;;9.54;75.24
34742;BME280;20968;42.696;23.360;2023-02-28T02:54:50;95727.00;;;9.57;74.91
34742;BME280;20968;42.696;23.360;2023-02-28T03:00:10;95730.81;;;9.68;74.39
34742;BME280;20968;42.696;23.360;2023-02-28T03:02:37;95727.00;;;9.75;74.03
34742;BME280;20968;42.696;23.360;2023-02-28T03:05:23;95746.56;;;9.77;74.61
34742;BME280;20968;42.696;23.360;2023-02-28T03:07:50;95740.91;;;9.80;73.57
34742;BME280;20968;42.696;23.360;2023-02-28T03:10:40;95758.31;;;9.86;73.55
34742;BME280;20968;42.696;23.360;2023-02-28T03:16:48;95758.47;;;9.83;74.41
34742;BME280;20968;42.696;23.360;2023-02-28T03:22:49;95761.53;;;9.85;74.10
34742;BME280;20968;42.696;23.360;2023-02-28T03:25:29;95764.75;;;9.83;73.62
34742;BME280;20968;42.696;23.360;2023-02-28T03:28:27;95767.34;;;9.78;73.33
34742;BME280;20968;42.696;23.360;2023-02-28T03:30:56;95773.91;;;9.80;73.79
34742;BME280;20968;42.696;23.360;2023-02-28T03:33:28;95771.63;;;9.79;73.35
34742;BME280;20968;42.696;23.360;2023-02-28T03:36:10;95777.88;;;9.70;74.09
34742;BME280;20968;42.696;23.360;2023-02-28T03:38:54;95786.13;;;9.70;73.75
34742;BME280;20968;42.696;23.360;2023-02-28T03:41:30;95779.88;;;9.79;73.50
34742;BME280;20968;42.696;23.360;2023-02-28T03:44:04;95788.13;;;9.79;73.81
34742;BME280;20968;42.696;23.360;2023-02-28T03:46:34;95781.84;;;9.78;73.31
34742;BME280;20968;42.696;23.360;2023-02-28T03:49:06;95786.28;;;9.85;73.55
34742;BME280;20968;42.696;23.360;2023-02-28T03:51:35;95790.72;;;9.82;74.07
34742;BME280;20968;42.696;23.360;2023-02-28T03:54:23;95786.13;;;9.79;74.06
34742;BME280;20968;42.696;23.360;2023-02-28T04:00:43;95795.44;;;9.82;73.98
34742;BME280;20968;42.696;23.360;2023-02-28T04:02:41;95789.19;;;9.81;73.32
34742;BME280;20968;42.696;23.360;2023-02-28T04:05:07;95790.56;;;9.77;74.14
34742;BME280;20968;42.696;23.360;2023-02-28T04:07:33;95802.03;;;9.75;73.92
34742;BME280;20968;42.696;23.360;2023-02-28T04:09:58;95800.94;;;9.82;73.67
34742;BME280;20968;42.696;23.360;2023-02-28T04:12:24;95790.88;;;9.79;74.29
34742;BME280;20968;42.696;23.360;2023-02-28T04:14:49;95790.09;;;9.78;74.44
34742;BME280;20968;42.696;23.360;2023-02-28T04:17:15;95781.53;;;9.85;73.99
34742;BME280;20968;42.696;23.360;2023-02-28T04:19:41;95790.72;;;9.82;73.67
34742;BME280;20968;42.696;23.360;2023-02-28T04:22:08;95787.50;;;9.84;74.16
34742;BME280;20968;42.696;23.360;2023-02-28T04:24:33;95780.47;;;9.83;74.09
34742;BME280;20968;42.696;23.360;2023-02-28T04:26:59;95784.28;;;9.85;74.49
34742;BME280;20968;42.696;23.360;2023-02-28T04:29:31;95789.78;;;9.85;73.97
34742;BME280;20968;42.696;23.360;2023-02-28T04:31:58;95786.44;;;9.81;74.11
34742;BME280;20968;42.696;23.360;2023-02-28T04:34:25;95793.00;;;9.84;73.99
34742;BME280;20968;42.696;23.360;2023-02-28T04:36:51;95792.38;;;9.80;74.73
34742;BME280;20968;42.696;23.360;2023-02-28T04:39:20;95792.53;;;9.76;74.66
34742;BME280;20968;42.696;23.360;2023-02-28T04:41:45;95791.19;;;9.72;74.06
34742;BME280;20968;42.696;23.360;2023-02-28T04:44:11;95791.19;;;9.72;74.43
34742;BME280;20968;42.696;23.360;2023-02-28T04:46:37;95799.44;;;9.72;74.06
34742;BME280;20968;42.696;23.360;2023-02-28T04:49:02;95804.94;;;9.72;74.15
34742;BME280;20968;42.696;23.360;2023-02-28T04:51:28;95806.13;;;9.62;73.86
34742;BME280;20968;42.696;23.360;2023-02-28T04:53:54;95817.44;;;9.64;74.01
34742;BME280;20968;42.696;23.360;2023-02-28T04:56:19;95816.81;;;9.69;74.45
34742;BME280;20968;42.696;23.360;2023-02-28T04:58:45;95812.69;;;9.64;74.57
34742;BME280;20968;42.696;23.360;2023-02-28T05:01:40;95811.19;;;9.81;79.57
34742;BME280;20968;42.696;23.360;2023-02-28T05:04:10;95809.78;;;10.48;82.20
34742;BME280;20968;42.696;23.360;2023-02-28T05:06:35;95809.44;;;10.73;79.00
34742;BME280;20968;42.696;23.360;2023-02-28T05:09:01;95805.66;;;11.03;77.60
34742;BME280;20968;42.696;23.360;2023-02-28T05:11:31;95805.34;;;11.42;75.85
34742;BME280;20968;42.696;23.360;2023-02-28T05:14:06;95814.50;;;11.71;73.38
34742;BME280;20968;42.696;23.360;2023-02-28T05:16:32;95820.03;;;11.95;72.25
34742;BME280;20968;42.696;23.360;2023-02-28T05:18:58;95822.69;;;12.27;67.66
34742;BME280;20968;42.696;23.360;2023-02-28T05:21:32;95827.97;;;12.02;66.67
34742;BME280;20968;42.696;23.360;2023-02-28T05:24:09;95834.06;;;11.82;65.70
34742;BME280;20968;42.696;23.360;2023-02-28T05:26:37;95842.06;;;11.57;65.39
34742;BME280;20968;42.696;23.360;2023-02-28T05:29:03;95841.63;;;11.41;65.50
34742;BME280;20968;42.696;23.360;2023-02-28T05:31:28;95841.72;;;11.23;65.85
34742;BME280;20968;42.696;23.360;2023-02-28T05:33:54;95836.59;;;10.98;66.47
34742;BME280;20968;42.696;23.360;2023-02-28T05:36:20;95841.50;;;10.94;66.88
34742;BME280;20968;42.696;23.360;2023-02-28T05:38:47;95833.75;;;10.75;66.86
34742;BME280;20968;42.696;23.360;2023-02-28T05:41:13;95849.84;;;10.67;67.88
34742;BME280;20968;42.696;23.360;2023-02-28T05:43:39;95844.34;;;10.49;68.19
34742;BME280;20968;42.696;23.360;2023-02-28T05:46:06;95849.88;;;10.49;68.37
34742;BME280;20968;42.696;23.360;2023-02-28T05:48:35;95845.78;;;10.36;68.75
34742;BME280;20968;42.696;23.360;2023-02-28T05:51:01;95851.88;;;10.31;69.47
34742;BME280;20968;42.696;23.360;2023-02-28T05:53:28;95856.31;;;10.19;69.83
34742;BME280;20968;42.696;23.360;2023-02-28T05:55:53;95863.03;;;10.18;69.59
34742;BME280;20968;42.696;23.360;2023-02-28T05:58:20;95853.09;;;10.03;70.44
34742;BME280;20968;42.696;23.360;2023-02-28T06:00:46;95865.31;;;10.02;70.46
34742;BME280;20968;42.696;23.360;2023-02-28T06:03:11;95859.34;;;10.04;70.96
34742;BME280;20968;42.696;23.360;2023-02-28T06:05:39;95852.94;;;9.98;71.04
34742;BME280;20968;42.696;23.360;2023-02-28T06:08:05;95863.47;;;9.90;71.25
34742;BME280;20968;42.696;23.360;2023-02-28T06:10:33;95863.59;;;9.87;71.68
34742;BME280;20968;42.696;23.360;2023-02-28T06:13:02;95854.56;;;9.77;72.66
34742;BME280;20968;42.696;23.360;2023-02-28T06:15:28;95858.84;;;9.78;72.47
34742;BME280;20968;42.696;23.360;2023-02-28T06:17:54;95862.22;;;9.82;72.47
34742;BME280;20968;42.696;23.360;2023-02-28T06:20:22;95862.06;;;9.77;72.18
34742;BME280;20968;42.696;23.360;2023-02-28T06:22:48;95858.84;;;9.78;72.19
34742;BME280;20968;42.696;23.360;2023-02-28T06:25:13;95850.00;;;9.74;72.50
34742;BME280;20968;42.696;23.360;2023-02-28T06:27:38;95862.38;;;9.79;73.00
34742;BME280;20968;42.696;23.360;2023-02-28T06:30:04;95859.91;;;9.81;73.01
34742;BME280;20968;42.696;23.360;2023-02-28T06:32:30;95860.84;;;9.87;73.42
34742;BME280;20968;42.696;23.360;2023-02-28T06:34:55;95867.88;;;9.79;72.82
34742;BME280;20968;42.696;23.360;2023-02-28T06:37:22;95868.03;;;9.75;72.90
34742;BME280;20968;42.696;23.360;2023-02-28T06:39:51;95875.84;;;9.86;73.14
34742;BME280;20968;42.696;23.360;2023-02-28T06:42:16;95881.00;;;9.84;73.59
34742;BME280;20968;42.696;23.360;2023-02-28T06:44:42;95872.91;;;9.80;73.65
34742;BME280;20968;42.696;23.360;2023-02-28T06:47:08;95884.38;;;9.79;73.89
34742;BME280;20968;42.696;23.360;2023-02-28T06:49:35;95882.53;;;9.85;72.95
34742;BME280;20968;42.696;23.360;2023-02-28T06:52:00;95874.75;;;9.83;72.89
34742;BME280;20968;42.696;23.360;2023-02-28T06:54:26;95879.63;;;9.79;73.32
34742;BME280;20968;42.696;23.360;2023-02-28T06:56:52;95871.53;;;9.85;73.99
34742;BME280;20968;42.696;23.360;2023-02-28T06:59:19;95875.50;;;9.84;73.86
34742;BME280;20968;42.696;23.360;2023-02-28T07:01:45;95887.41;;;9.81;74.55
34742;BME280;20968;42.696;23.360;2023-02-28T07:04:11;95877.66;;;9.89;73.83
34742;BME280;20968;42.696;23.360;2023-02-28T07:06:38;95889.44;;;9.89;73.95
34742;BME280;20968;42.696;23.360;2023-02-28T07:09:04;95879.34;;;9.86;74.46
34742;BME280;20968;42.696;23.360;2023-02-28T07:11:29;95877.66;;;9.89;74.24
34742;BME280;20968;42.696;23.360;2023-02-28T07:13:55;95885.59;;;9.96;74.73
34742;BME280;20968;42.696;23.360;2023-02-28T07:16:21;95877.34;;;9.96;73.98
34742;BME280;20968;42.696;23.360;2023-02-28T07:18:47;95872.19;;;9.98;73.36
34742;BME280;20968;42.696;23.360;2023-02-28T07:21:13;95880.94;;;10.05;73.68
34742;BME280;20968;42.696;23.360;2023-02-28T07:23:39;95878.78;;;10.09;73.57
34742;BME280;20968;42.696;23.360;2023-02-28T07:26:07;95884.59;;;10.11;73.18
34742;BME280;20968;42.696;23.360;2023-02-28T07:28:33;95882.16;;;10.13;73.05
34742;BME280;20968;42.696;23.360;2023-02-28T07:31:06;95875.88;;;10.12;73.11
34742;BME280;20968;42.696;23.360;2023-02-28T07:33:32;95890.69;;;10.15;73.18
34742;BME280;20968;42.696;23.360;2023-02-28T07:36:07;95881.38;;;10.12;72.83
34742;BME280;20968;42.696;23.360;2023-02-28T07:38:34;95882.59;;;10.20;73.04
34742;BME280;20968;42.696;23.360;2023-02-28T07:41:00;95881.56;;;10.27;72.90
34742;BME280;20968;42.696;23.360;2023-02-28T07:43:29;95879.25;;;10.34;73.07
34742;BME280;20968;42.696;23.360;2023-02-28T07:45:55;95880.94;;;10.41;73.60
34742;BME280;20968;42.696;23.360;2023-02-28T07:48:20;95875.13;;;10.39;73.62
34742;BME280;20968;42.696;23.360;2023-02-28T07:50:54;95893.47;;;10.42;73.31
34742;BME280;20968;42.696;23.360;2023-02-28T07:53:20;95872.34;;;10.39;72.98
34742;BME280;20968;42.696;23.360;2023-02-28T07:55:46;95869.13;;;10.49;72.98
34742;BME280;20968;42.696;23.360;2023-02-28T07:58:11;95874.97;;;10.51;72.78
34742;BME280;20968;42.696;23.360;2023-02-28T08:00:36;95874.78;;;10.55;72.82
34742;BME280;20968;42.696;23.360;2023-02-28T08:03:02;95867.44;;;10.61;73.41
34742;BME280;20968;42.696;23.360;2023-02-28T08:05:27;95866.22;;;10.71;72.96
34742;BME280;20968;42.696;23.360;2023-02-28T08:07:53;95860.53;;;10.74;72.74
34742;BME280;20968;42.696;23.360;2023-02-28T08:10:18;95876.44;;;10.88;72.53
34742;BME280;20968;42.696;23.360;2023-02-28T08:12:44;95876.75;;;10.81;71.90
34742;BME280;20968;42.696;23.360;2023-02-28T08:15:09;95869.53;;;10.83;72.07
34742;BME280;20968;42.696;23.360;2023-02-28T08:17:38;95878.56;;;10.93;72.04
34742;BME280;20968;42.696;23.360;2023-02-28T08:20:04;95871.63;;;11.06;71.98
34742;BME280;20968;42.696;23.360;2023-02-28T08:22:29;95873.88;;;11.17;72.36
34742;BME280;20968;42.696;23.360;2023-02-28T08:24:55;95867.44;;;11.29;72.28
34742;BME280;20968;42.696;23.360;2023-02-28T08:27:20;95867.56;;;11.34;72.51
34742;BME280;20968;42.696;23.360;2023-02-28T08:29:45;95868.16;;;11.38;72.53
34742;BME280;20968;42.696;23.360;2023-02-28T08:32:11;95879.88;;;11.57;72.30
34742;BME280;20968;42.696;23.360;2023-02-28T08:34:39;95876.97;;;11.60;73.02
34742;BME280;20968;42.696;23.360;2023-02-28T08:37:05;95879.97;;;11.71;72.64
34742;BME280;20968;42.696;23.360;2023-02-28T08:39:34;95872.88;;;11.79;nan
34742;BME280;20968;42.696;23.360;2023-02-28T08:42:02;95869.66;;;11.80;73.06
34742;BME280;20968;42.696;23.360;2023-02-28T08:44:27;95870.00;;;11.73;73.68
34742;BME280;20968;42.696;23.360;2023-02-28T08:46:53;95877.53;;;11.96;73.67
34742;BME280;20968;42.696;23.360;2023-02-28T08:49:18;95870.13;;;12.02;74.43
34742;BME280;20968;42.696;23.360;2023-02-28T08:51:44;95868.41;;;11.81;75.98
34742;BME280;20968;42.696;23.360;2023-02-28T08:54:09;95866.84;;;11.89;75.92
34742;BME280;20968;42.696;23.360;2023-02-28T08:56:37;95864.03;;;11.66;76.10
34742;BME280;20968;42.696;23.360;2023-02-28T08:59:03;95866.94;;;11.71;77.11
34742;BME280;20968;42.696;23.360;2023-02-28T09:01:31;95868.94;;;11.71;76.56
34742;BME280;20968;42.696;23.360;2023-02-28T09:03:58;95875.81;;;11.99;76.56
34742;BME280;20968;42.696;23.360;2023-02-28T09:06:25;95877.28;;;11.85;75.71
34742;BME280;20968;42.696;23.360;2023-02-28T09:08:52;95872.00;;;11.96;76.37
34742;BME280;20968;42.696;23.360;2023-02-28T09:11:18;95874.41;;;12.03;75.91
34742;BME280;20968;42.696;23.360;2023-02-28T09:13:45;95874.72;;;12.05;75.17
34742;BME280;20968;42.696;23.360;2023-02-28T09:16:12;95867.84;;;12.01;75.56
34742;BME280;20968;42.696;23.360;2023-02-28T09:18:39;95871.53;;;11.98;75.70
34742;BME280;20968;42.696;23.360;2023-02-28T09:21:09;95863.13;;;11.92;74.91
34742;BME280;20968;42.696;23.360;2023-02-28T09:23:35;95863.66;;;12.05;75.21
34742;BME280;20968;42.696;23.360;2023-02-28T09:26:03;95867.88;;;12.15;75.52
34742;BME280;20968;42.696;23.360;2023-02-28T09:28:28;95864.41;;;12.06;74.22
34742;BME280;20968;42.696;23.360;2023-02-28T09:30:54;95863.44;;;12.32;74.43
34742;BME280;20968;42.696;23.360;2023-02-28T09:33:21;95860.66;;;12.55;73.99
34742;BME280;20968;42.696;23.360;2023-02-28T09:35:51;95854.84;;;12.53;72.72
34742;BME280;20968;42.696;23.360;2023-02-28T09:38:22;95865.63;;;12.66;72.08
34742;BME280;20968;42.696;23.360;2023-02-28T09:40:53;95870.84;;;12.64;72.74
34742;BME280;20968;42.696;23.360;2023-02-28T09:43:23;95862.69;;;12.69;72.59
34742;BME280;20968;42.696;23.360;2023-02-28T09:45:56;95854.13;;;12.82;73.42
34742;BME280;20968;42.696;23.360;2023-02-28T09:48:32;95862.91;;;13.09;72.77
34742;BME280;20968;42.696;23.360;2023-02-28T09:51:09;95859.47;;;13.00;71.16
34742;BME280;20968;42.696;23.360;2023-02-28T09:53:38;95866.91;;;13.08;70.72
34742;BME280;20968;42.696;23.360;2023-02-28T09:56:11;95863.28;;;13.17;70.04
34742;BME280;20968;42.696;23.360;2023-02-28T09:58:43;95859.28;;;13.32;69.88
34742;BME280;20968;42.696;23.360;2023-02-28T10:06:59;95848.41;;;13.00;69.73
34742;BME280;20968;42.696;23.360;2023-02-28T10:09:30;95849.84;;;12.95;69.84
34742;BME280;20968;42.696;23.360;2023-02-28T10:12:02;95851.88;;;13.09;70.07
34742;BME280;20968;42.696;23.360;2023-02-28T10:14:31;95848.22;;;13.18;69.49
34742;BME280;20968;42.696;23.360;2023-02-28T10:17:03;95839.94;;;13.18;69.01
34742;BME280;20968;42.696;23.360;2023-02-28T10:19:41;95849.16;;;13.43;69.15
34742;BME280;20968;42.696;23.360;2023-02-28T10:22:20;95845.72;;;13.34;68.21
34742;BME280;20968;42.696;23.360;2023-02-28T10:24:51;95838.09;;;13.43;67.62
34742;BME280;20968;42.696;23.360;2023-02-28T10:27:18;95834.59;;;13.63;67.59
34742;BME280;20968;42.696;23.360;2023-02-28T10:29:46;95835.22;;;13.72;66.58
34742;BME280;20968;42.696;23.360;2023-02-28T10:32:21;95831.81;;;13.97;65.28
34742;BME280;20968;42.696;23.360;2023-02-28T10:35:00;95838.88;;;14.18;64.42
34742;BME280;20968;42.696;23.360;2023-02-28T10:37:30;95828.50;;;14.13;64.21
34742;BME280;20968;42.696;23.360;2023-02-28T10:39:57;95815.06;;;14.26;65.78
34742;BME280;20968;42.696;23.360;2023-02-28T10:42:26;95821.38;;;14.52;65.11
34742;BME280;20968;42.696;23.360;2023-02-28T10:45:11;95810.84;;;14.81;66.56
34742;BME280;20968;42.696;23.360;2023-02-28T10:47:52;95804.28;;;15.35;64.37
34742;BME280;20968;42.696;23.360;2023-02-28T10:53:10;95802.53;;;15.73;61.58
34742;BME280;20968;42.696;23.360;2023-02-28T10:55:40;95792.66;;;15.05;61.43
34742;BME280;20968;42.696;23.360;2023-02-28T10:58:20;95788.34;;;14.99;61.98
34742;BME280;20968;42.696;23.360;2023-02-28T11:00:46;95784.66;;;14.82;62.38
34742;BME280;20968;42.696;23.360;2023-02-28T11:03:30;95781.72;;;14.40;63.26
34742;BME280;20968;42.696;23.360;2023-02-28T11:05:56;95777.16;;;14.37;63.50
34742;BME280;20968;42.696;23.360;2023-02-28T11:08:22;95766.75;;;14.32;64.08
34742;BME280;20968;42.696;23.360;2023-02-28T11:10:59;95768.66;;;14.21;64.55
34742;BME280;20968;42.696;23.360;2023-02-28T11:13:32;95779.31;;;14.28;64.67
34742;BME280;20968;42.696;23.360;2023-02-28T11:16:02;95775.03;;;14.27;62.93
34742;BME280;20968;42.696;23.360;2023-02-28T11:20:58;95768.94;;;14.23;65.44
34742;BME280;20968;42.696;23.360;2023-02-28T11:23:30;95767.41;;;14.47;64.11
34742;BME280;20968;42.696;23.360;2023-02-28T11:25:59;95765.44;;;14.28;63.95
34742;BME280;20968;42.696;23.360;2023-02-28T11:28:30;95765.28;;;14.37;64.01
34742;BME280;20968;42.696;23.360;2023-02-28T11:31:17;95760.53;;;14.63;63.43
34742;BME280;20968;42.696;23.360;2023-02-28T11:33:47;95767.28;;;14.87;61.54
34742;BME280;20968;42.696;23.360;2023-02-28T11:36:20;95765.09;;;14.96;60.93
34742;BME280;20968;42.696;23.360;2023-02-28T11:38:49;95768.44;;;15.00;61.11
34742;BME280;20968;42.696;23.360;2023-02-28T11:46:37;95759.13;;;14.73;61.79
34742;BME280;20968;42.696;23.360;2023-02-28T11:52:32;95757.91;;;14.54;60.74
34742;BME280;20968;42.696;23.360;2023-02-28T11:55:05;95758.94;;;14.56;60.72
34742;BME280;20968;42.696;23.360;2023-02-28T12:00:40;95757.91;;;14.79;60.63
34742;BME280;20968;42.696;23.360;2023-02-28T12:03:49;95747.69;;;14.65;60.60
34742;BME280;20968;42.696;23.360;2023-02-28T12:06:30;95751.66;;;14.59;60.46
34742;BME280;20968;42.696;23.360;2023-02-28T12:09:17;95748.53;;;14.46;61.43
34742;BME280;20968;42.696;23.360;2023-02-28T12:17:51;95746.63;;;14.57;61.15
34742;BME280;20968;42.696;23.360;2023-02-28T12:28:51;95736.38;;;14.69;61.49
34742;BME280;20968;42.696;23.360;2023-02-28T12:31:25;95750.16;;;14.88;60.60
34742;BME280;20968;42.696;23.360;2023-02-28T12:33:55;95746.41;;;14.61;60.58
34742;BME280;20968;42.696;23.360;2023-02-28T12:36:22;95745.44;;;14.64;61.36
34742;BME280;20968;42.696;23.360;2023-02-28T12:38:54;95753.63;;;14.53;60.86
34742;BME280;20968;42.696;23.360;2023-02-28T12:41:36;95737.06;;;14.58;61.02
34742;BME280;20968;42.696;23.360;2023-02-28T12:44:09;95749.59;;;14.54;61.08
34742;BME280;20968;42.696;23.360;2023-02-28T12:46:43;95732.53;;;14.35;60.39
34742;BME280;20968;42.696;23.360;2023-02-28T12:51:46;95735.97;;;14.05;61.78
34742;BME280;20968;42.696;23.360;2023-02-28T12:54:30;95727.59;;;13.99;61.62
34742;BME280;20968;42.696;23.360;2023-02-28T12:57:14;95732.44;;;14.04;62.22
34742;BME280;20968;42.696;23.360;2023-02-28T12:59:59;95742.78;;;14.04;62.23
34742;BME280;20968;42.696;23.360;2023-02-28T13:08:00;95731.72;;;14.09;62.19
34742;BME280;20968;42.696;23.360;2023-02-28T13:10:46;95736.94;;;14.02;62.70
34742;BME280;20968;42.696;23.360;2023-02-28T13:13:18;95735.28;;;14.10;61.63
34742;BME280;20968;42.696;23.360;2023-02-28T13:16:06;95730.25;;;13.89;62.10
34742;BME280;20968;42.696;23.360;2023-02-28T13:18:43;95723.53;;;13.75;61.84
34742;BME280;20968;42.696;23.360;2023-02-28T13:21:22;95723.59;;;13.81;62.47
34742;BME280;20968;42.696;23.360;2023-02-28T13:28:59;95722.31;;;14.01;62.87
34742;BME280;20968;42.696;23.360;2023-02-28T13:31:25;95723.41;;;14.09;62.30
34742;BME280;20968;42.696;23.360;2023-02-28T13:36:26;95718.84;;;13.81;62.47
34742;BME280;20968;42.696;23.360;2023-02-28T13:38:53;95717.63;;;13.88;62.85
34742;BME280;20968;42.696;23.360;2023-02-28T14:00:20;95706.97;;;14.00;61.70
34742;BME280;20968;42.696;23.360;2023-02-28T14:03:15;95703.66;;;13.97;62.98
34742;BME280;20968;42.696;23.360;2023-02-28T14:05:46;95709.75;;;13.81;62.05
34742;BME280;20968;42.696;23.360;2023-02-28T14:08:20;95706.50;;;13.82;62.76
34742;BME280;20968;42.696;23.360;2023-02-28T14:10:50;95706.09;;;13.49;63.10
34742;BME280;20968;42.696;23.360;2023-02-28T14:18:32;95713.72;;;13.34;63.53
34742;BME280;20968;42.696;23.360;2023-02-28T14:21:32;95721.72;;;13.32;64.11
34742;BME280;20968;42.696;23.360;2023-02-28T14:38:23;95722.69;;;13.29;64.33
34742;BME280;20968;42.696;23.360;2023-02-28T14:40:52;95720.31;;;13.22;64.67
34742;BME280;20968;42.696;23.360;2023-02-28T14:43:24;95728.50;;;12.97;65.20
34742;BME280;20968;42.696;23.360;2023-02-28T14:46:02;95721.09;;;12.89;65.95
34742;BME280;20968;42.696;23.360;2023-02-28T14:48:29;95713.63;;;12.80;65.87
34742;BME280;20968;42.696;23.360;2023-02-28T14:50:58;95724.47;;;12.84;66.10
34742;BME280;20968;42.696;23.360;2023-02-28T14:53:27;95722.19;;;12.82;66.85
34742;BME280;20968;42.696;23.360;2023-02-28T14:55:56;95725.00;;;12.68;67.04
34742;BME280;20968;42.696;23.360;2023-02-28T14:58:26;95719.38;;;12.62;67.71
34742;BME280;20968;42.696;23.360;2023-02-28T15:00:54;95724.72;;;12.66;66.86
34742;BME280;20968;42.696;23.360;2023-02-28T15:05:59;95731.22;;;12.48;68.40
34742;BME280;20968;42.696;23.360;2023-02-28T15:08:26;95729.38;;;12.31;69.16
34742;BME280;20968;42.696;23.360;2023-02-28T15:11:07;95720.81;;;12.29;69.22